Time;durP1;ratioP1;P1;durP2;ratioP2;P2;SDS_P1;SDS_P2;PMS_P1;PMS_P2;Temp;Humidity;BMP_temperature;BMP_pressure;BME280_temperature;BME280_humidity;BME280_pressure;Samples;Min_cycle;Max_cycle;Signal;HPM_P1;HPM_P2
2022/10/09 00:02:04;;;;;;;5.67;3.80;;;;;;;;;;5051037;28;20201;-63
2022/10/09 00:04:32;;;;;;;5.00;4.00;;;;;;;;;;5054493;28;20206;-62
2022/10/09 00:06:59;;;;;;;5.67;3.20;;;;;;;;;;5057416;28;20271;-63
2022/10/09 00:09:27;;;;;;;3.60;3.30;;;;;;;;;;5050112;28;20294;-62
2022/10/09 00:11:54;;;;;;;4.20;3.80;;;;;;;;;;5051710;28;20225;-62
2022/10/09 00:14:21;;;;;;;4.67;3.87;;;;;;;;;;5055135;28;20220;-63
2022/10/09 00:16:49;;;;;;;6.17;3.77;;;;;;;;;;5055740;28;20260;-63
2022/10/09 00:19:17;;;;;;;5.77;4.90;;;;;;;;;;5045746;28;20221;-63
2022/10/09 00:21:44;;;;;;;4.97;3.80;;;;;;;;;;5057309;28;20300;-62
2022/10/09 00:24:11;;;;;;;4.57;3.77;;;;;;;;;;5046561;28;20216;-63
2022/10/09 00:26:38;;;;;;;3.70;3.37;;;;;;;;;;5056689;28;20223;-62
2022/10/09 00:29:06;;;;;;;4.43;3.40;;;;;;;;;;5067326;28;20912;-63
2022/10/09 00:31:33;;;;;;;4.00;3.60;;;;;;;;;;5051878;28;20256;-62
2022/10/09 00:34:00;;;;;;;3.70;3.40;;;;;;;;;;5045825;28;20237;-63
2022/10/09 00:36:28;;;;;;;3.83;3.00;;;;;;;;;;5065552;28;20234;-62
2022/10/09 00:38:55;;;;;;;2.80;2.40;;;;;;;;;;5048066;28;20228;-63
2022/10/09 00:41:27;;;;;;;2.80;2.60;;;;;;;;;;5051179;28;20206;-62
2022/10/09 00:43:56;;;;;;;2.70;2.50;;;;;;;;;;5055720;28;20225;-63
2022/10/09 00:46:33;;;;;;;3.17;2.87;;;;;;;;;;5056776;28;20235;-63
2022/10/09 00:49:09;;;;;;;2.73;2.53;;;;;;;;;;5044637;28;20210;-60
2022/10/09 00:51:37;;;;;;;2.53;2.33;;;;;;;;;;5048378;28;20666;-61
2022/10/09 00:54:06;;;;;;;3.00;2.80;;;;;;;;;;5053302;28;20664;-64
2022/10/09 00:56:34;;;;;;;4.60;3.97;;;;;;;;;;5052898;28;20218;-64
2022/10/09 00:59:02;;;;;;;3.23;2.80;;;;;;;;;;5047982;28;20220;-61
2022/10/09 01:01:29;;;;;;;3.60;3.30;;;;;;;;;;5048047;28;20570;-61
2022/10/09 01:03:57;;;;;;;4.23;3.83;;;;;;;;;;5048496;28;20300;-61
2022/10/09 01:06:29;;;;;;;6.77;4.03;;;;;;;;;;5046081;28;20223;-63
2022/10/09 01:09:02;;;;;;;5.50;3.70;;;;;;;;;;5050810;28;20238;-63
2022/10/09 01:11:41;;;;;;;5.03;3.30;;;;;;;;;;5058778;28;20222;-61
2022/10/09 01:14:14;;;;;;;3.30;3.00;;;;;;;;;;5039933;28;20218;-62
2022/10/09 01:16:44;;;;;;;5.30;4.80;;;;;;;;;;5058167;28;21178;-64
2022/10/09 01:19:20;;;;;;;5.17;4.67;;;;;;;;;;5046439;28;20214;-61
2022/10/09 01:22:01;;;;;;;5.43;4.87;;;;;;;;;;5047483;28;20205;-61
2022/10/09 01:24:34;;;;;;;5.03;4.27;;;;;;;;;;5046148;28;20675;-62
2022/10/09 01:27:09;;;;;;;4.97;3.40;;;;;;;;;;5037691;28;20236;-63
2022/10/09 01:29:45;;;;;;;3.50;3.20;;;;;;;;;;5045674;28;20387;-62
2022/10/09 01:32:15;;;;;;;5.23;4.60;;;;;;;;;;5049489;28;20217;-63
2022/10/09 01:34:44;;;;;;;5.13;3.87;;;;;;;;;;5051068;28;20571;-63
2022/10/09 01:37:13;;;;;;;9.27;6.53;;;;;;;;;;5046243;28;20586;-63
2022/10/09 01:39:41;;;;;;;5.33;4.20;;;;;;;;;;5054354;28;21982;-63
2022/10/09 01:42:09;;;;;;;5.43;3.97;;;;;;;;;;5051214;28;20201;-63
2022/10/09 01:44:37;;;;;;;4.60;4.20;;;;;;;;;;5052361;28;20251;-62
2022/10/09 01:47:05;;;;;;;8.67;5.53;;;;;;;;;;5054226;28;20229;-63
2022/10/09 01:49:41;;;;;;;4.50;3.87;;;;;;;;;;5034565;28;20728;-63
2022/10/09 01:52:13;;;;;;;7.83;5.73;;;;;;;;;;5051490;28;20228;-61
2022/10/09 01:54:51;;;;;;;12.67;8.27;;;;;;;;;;5062154;28;20192;-62
2022/10/09 01:57:22;;;;;;;10.27;6.73;;;;;;;;;;5050887;28;20217;-62
2022/10/09 01:59:52;;;;;;;6.87;5.10;;;;;;;;;;5057257;28;20213;-61
2022/10/09 02:02:19;;;;;;;4.50;4.10;;;;;;;;;;5059068;28;20216;-61
2022/10/09 02:04:49;;;;;;;9.93;3.90;;;;;;;;;;5055257;28;22251;-62
2022/10/09 02:07:17;;;;;;;7.93;4.17;;;;;;;;;;5055790;28;20312;-61
2022/10/09 02:09:45;;;;;;;4.20;3.73;;;;;;;;;;5057110;28;20684;-62
2022/10/09 02:12:13;;;;;;;6.37;4.30;;;;;;;;;;5060498;28;20687;-62
2022/10/09 02:14:40;;;;;;;5.17;4.23;;;;;;;;;;5054065;28;20362;-63
2022/10/09 02:17:17;;;;;;;7.37;4.40;;;;;;;;;;5056781;28;20229;-62
2022/10/09 02:19:50;;;;;;;5.80;5.10;;;;;;;;;;5052487;28;20209;-64
2022/10/09 02:22:24;;;;;;;8.33;5.37;;;;;;;;;;5056975;28;20205;-61
2022/10/09 02:24:51;;;;;;;8.43;5.83;;;;;;;;;;5054700;28;20202;-62
2022/10/09 02:27:19;;;;;;;8.73;5.40;;;;;;;;;;5050143;28;20328;-62
2022/10/09 02:29:47;;;;;;;8.60;6.20;;;;;;;;;;5045887;28;20214;-61
2022/10/09 02:32:15;;;;;;;10.53;5.87;;;;;;;;;;5060230;28;20230;-61
2022/10/09 02:34:43;;;;;;;8.83;5.33;;;;;;;;;;5048573;28;20229;-62
2022/10/09 02:37:10;;;;;;;11.77;5.77;;;;;;;;;;5063726;28;20320;-63
2022/10/09 02:39:38;;;;;;;7.63;5.90;;;;;;;;;;5058196;28;20201;-61
2022/10/09 02:42:05;;;;;;;16.43;8.20;;;;;;;;;;5046540;28;20206;-62
2022/10/09 02:44:33;;;;;;;12.37;7.70;;;;;;;;;;5056385;28;20232;-63
2022/10/09 02:47:00;;;;;;;10.60;6.37;;;;;;;;;;5046208;28;20274;-62
2022/10/09 02:49:27;;;;;;;8.37;6.10;;;;;;;;;;5049700;28;20344;-62
2022/10/09 02:51:55;;;;;;;7.83;6.20;;;;;;;;;;5062432;28;20909;-63
2022/10/09 02:54:22;;;;;;;8.50;6.17;;;;;;;;;;5055015;28;20771;-63
2022/10/09 02:56:50;;;;;;;9.93;5.60;;;;;;;;;;5059738;28;20221;-61
2022/10/09 02:59:17;;;;;;;9.53;5.47;;;;;;;;;;5050889;28;20201;-62
2022/10/09 03:01:44;;;;;;;7.20;5.73;;;;;;;;;;5055142;28;22109;-63
2022/10/09 03:04:12;;;;;;;9.43;5.43;;;;;;;;;;5051038;28;20207;-61
2022/10/09 03:06:39;;;;;;;11.13;7.37;;;;;;;;;;5055696;28;20893;-62
2022/10/09 03:09:06;;;;;;;10.47;5.93;;;;;;;;;;5048388;28;20202;-61
2022/10/09 03:11:34;;;;;;;8.50;5.63;;;;;;;;;;5052311;28;20593;-61
2022/10/09 03:14:01;;;;;;;8.60;5.27;;;;;;;;;;5046265;28;20279;-61
2022/10/09 03:16:29;;;;;;;8.93;5.67;;;;;;;;;;5046296;28;22708;-62
2022/10/09 03:18:57;;;;;;;9.23;5.73;;;;;;;;;;5042572;28;20306;-63
2022/10/09 03:21:26;;;;;;;9.27;5.80;;;;;;;;;;5063057;28;20209;-61
2022/10/09 03:23:53;;;;;;;10.17;6.00;;;;;;;;;;5054306;28;20206;-61
2022/10/09 03:26:22;;;;;;;8.40;5.73;;;;;;;;;;5058473;28;21603;-61
2022/10/09 03:28:51;;;;;;;8.57;4.97;;;;;;;;;;5038342;28;20860;-62
2022/10/09 03:31:20;;;;;;;6.77;5.37;;;;;;;;;;5039294;28;21750;-61
2022/10/09 03:34:07;;;;;;;8.57;5.30;;;;;;;;;;5038565;28;20202;-60
2022/10/09 03:36:34;;;;;;;9.40;5.37;;;;;;;;;;5054073;28;20227;-61
2022/10/09 03:39:02;;;;;;;7.47;5.17;;;;;;;;;;5040004;28;20311;-62
2022/10/09 03:41:29;;;;;;;9.83;6.33;;;;;;;;;;5038708;28;20211;-62
2022/10/09 03:43:57;;;;;;;13.60;5.90;;;;;;;;;;5045753;28;20201;-62
2022/10/09 03:46:27;;;;;;;7.87;5.60;;;;;;;;;;5048465;28;20293;-63
2022/10/09 03:48:54;;;;;;;11.93;6.10;;;;;;;;;;5048769;28;20336;-61
2022/10/09 03:51:22;;;;;;;10.73;6.17;;;;;;;;;;5055264;28;20309;-62
2022/10/09 03:53:49;;;;;;;8.77;6.13;;;;;;;;;;5055342;28;20225;-63
2022/10/09 03:56:16;;;;;;;14.53;7.13;;;;;;;;;;5050157;28;20243;-62
2022/10/09 03:58:44;;;;;;;9.53;6.70;;;;;;;;;;5046275;28;20322;-62
2022/10/09 04:01:11;;;;;;;17.67;9.17;;;;;;;;;;5062376;28;20662;-62
2022/10/09 04:03:39;;;;;;;13.20;6.87;;;;;;;;;;5062175;28;20217;-60
2022/10/09 04:06:06;;;;;;;10.20;6.50;;;;;;;;;;5058568;28;20223;-62
2022/10/09 04:08:34;;;;;;;12.03;6.87;;;;;;;;;;5071711;28;20591;-63
2022/10/09 04:11:02;;;;;;;10.90;7.53;;;;;;;;;;5058437;28;20211;-62
2022/10/09 04:13:29;;;;;;;12.27;6.90;;;;;;;;;;5053005;28;20215;-61
2022/10/09 04:15:57;;;;;;;10.80;6.83;;;;;;;;;;5056468;28;20302;-61
2022/10/09 04:18:24;;;;;;;12.07;7.83;;;;;;;;;;5067595;28;20197;-63
2022/10/09 04:20:53;;;;;;;12.23;7.10;;;;;;;;;;5057036;28;20229;-63
2022/10/09 04:23:24;;;;;;;9.60;6.77;;;;;;;;;;5068709;28;20285;-63
2022/10/09 04:25:53;;;;;;;11.10;6.70;;;;;;;;;;5056841;28;20280;-62
2022/10/09 04:28:22;;;;;;;12.00;6.63;;;;;;;;;;5049573;28;20207;-63
2022/10/09 04:30:50;;;;;;;11.40;7.37;;;;;;;;;;5051356;28;20210;-62
2022/10/09 04:33:17;;;;;;;12.60;6.83;;;;;;;;;;5056181;28;20196;-62
2022/10/09 04:35:45;;;;;;;12.40;6.83;;;;;;;;;;5056573;28;20287;-62
2022/10/09 04:38:12;;;;;;;9.77;6.63;;;;;;;;;;5053397;28;20211;-63
2022/10/09 04:40:40;;;;;;;13.03;7.20;;;;;;;;;;5055518;28;20196;-62
2022/10/09 04:43:07;;;;;;;11.97;7.07;;;;;;;;;;5038518;28;20201;-62
2022/10/09 04:45:39;;;;;;;11.83;7.10;;;;;;;;;;5044584;28;20208;-63
2022/10/09 04:48:06;;;;;;;14.20;7.00;;;;;;;;;;5058375;28;20229;-62
2022/10/09 04:50:33;;;;;;;11.00;6.97;;;;;;;;;;5048509;28;20229;-63
2022/10/09 04:53:01;;;;;;;10.77;6.67;;;;;;;;;;5055934;28;20367;-62
2022/10/09 04:55:28;;;;;;;14.73;7.47;;;;;;;;;;5078202;28;20671;-62
2022/10/09 04:57:55;;;;;;;12.37;6.73;;;;;;;;;;5050477;28;20217;-62
2022/10/09 05:00:23;;;;;;;17.10;8.00;;;;;;;;;;5069578;28;20343;-62
2022/10/09 05:02:50;;;;;;;15.83;7.50;;;;;;;;;;5057150;28;20229;-63
2022/10/09 05:05:18;;;;;;;11.57;7.77;;;;;;;;;;5056872;28;20206;-63
2022/10/09 05:07:45;;;;;;;12.57;8.20;;;;;;;;;;5062615;28;20949;-63
2022/10/09 05:10:12;;;;;;;13.77;7.50;;;;;;;;;;5060151;28;20210;-63
2022/10/09 05:12:40;;;;;;;11.40;7.47;;;;;;;;;;5060876;28;20312;-63
2022/10/09 05:15:07;;;;;;;11.70;7.37;;;;;;;;;;5052897;28;20255;-62
2022/10/09 05:17:34;;;;;;;13.80;8.53;;;;;;;;;;5048409;28;20753;-62
2022/10/09 05:20:02;;;;;;;11.87;7.23;;;;;;;;;;5075034;28;20210;-62
2022/10/09 05:22:29;;;;;;;12.70;7.73;;;;;;;;;;5059454;28;20227;-62
2022/10/09 05:24:57;;;;;;;14.60;7.33;;;;;;;;;;5047893;28;20371;-61
2022/10/09 05:27:24;;;;;;;11.00;7.13;;;;;;;;;;5052020;28;20230;-61
2022/10/09 05:29:52;;;;;;;13.77;7.40;;;;;;;;;;5062145;28;20209;-61
2022/10/09 05:32:19;;;;;;;10.80;6.93;;;;;;;;;;5058060;28;20228;-64
2022/10/09 05:34:46;;;;;;;13.43;7.00;;;;;;;;;;5054314;28;20304;-62
2022/10/09 05:37:13;;;;;;;13.97;7.33;;;;;;;;;;5050849;28;20746;-64
2022/10/09 05:39:41;;;;;;;14.00;8.17;;;;;;;;;;5055711;28;20238;-61
2022/10/09 05:42:08;;;;;;;10.67;7.57;;;;;;;;;;5055269;28;20229;-61
2022/10/09 05:44:36;;;;;;;11.73;6.97;;;;;;;;;;5054291;28;20634;-62
2022/10/09 05:47:03;;;;;;;12.70;6.90;;;;;;;;;;5036822;28;20232;-61
2022/10/09 05:49:30;;;;;;;11.77;6.90;;;;;;;;;;5051066;28;20225;-64
2022/10/09 05:51:58;;;;;;;10.37;7.37;;;;;;;;;;5050000;28;20225;-61
2022/10/09 05:54:26;;;;;;;10.27;6.93;;;;;;;;;;5044491;28;20296;-62
2022/10/09 05:56:53;;;;;;;15.50;7.87;;;;;;;;;;5053432;28;20228;-61
2022/10/09 05:59:21;;;;;;;10.63;6.57;;;;;;;;;;5044744;28;21044;-61
2022/10/09 06:01:49;;;;;;;12.73;6.57;;;;;;;;;;5052866;28;20303;-62
2022/10/09 06:04:21;;;;;;;12.80;7.30;;;;;;;;;;5076126;28;20724;-61
2022/10/09 06:06:49;;;;;;;9.53;6.57;;;;;;;;;;5051443;28;20218;-62
2022/10/09 06:09:20;;;;;;;9.27;6.43;;;;;;;;;;5047619;28;20210;-63
2022/10/09 06:11:49;;;;;;;14.47;7.10;;;;;;;;;;5057685;28;20299;-62
2022/10/09 06:14:19;;;;;;;16.10;9.63;;;;;;;;;;5050404;28;20526;-63
2022/10/09 06:16:47;;;;;;;22.80;12.00;;;;;;;;;;5052759;28;20226;-64
2022/10/09 06:19:15;;;;;;;16.40;8.67;;;;;;;;;;5052457;28;20237;-63
2022/10/09 06:21:44;;;;;;;21.30;11.00;;;;;;;;;;5062074;28;20214;-62
2022/10/09 06:24:16;;;;;;;16.50;10.13;;;;;;;;;;5043992;28;20660;-64
2022/10/09 06:26:44;;;;;;;15.07;7.93;;;;;;;;;;5038575;28;20351;-62
2022/10/09 06:29:11;;;;;;;10.40;6.50;;;;;;;;;;5067156;28;21158;-62
2022/10/09 06:31:39;;;;;;;9.97;6.80;;;;;;;;;;5060831;28;20208;-62
2022/10/09 06:34:08;;;;;;;10.67;6.77;;;;;;;;;;5054949;28;20199;-62
2022/10/09 06:36:35;;;;;;;12.73;7.00;;;;;;;;;;5053827;28;20227;-62
2022/10/09 06:39:05;;;;;;;9.93;6.70;;;;;;;;;;5058223;28;20216;-62
2022/10/09 06:41:33;;;;;;;10.67;6.63;;;;;;;;;;5051442;28;20656;-62
2022/10/09 06:44:03;;;;;;;10.27;6.53;;;;;;;;;;5051202;28;20343;-62
2022/10/09 06:46:35;;;;;;;14.57;7.60;;;;;;;;;;5050694;28;22518;-63
2022/10/09 06:49:03;;;;;;;14.67;7.10;;;;;;;;;;5048784;28;20262;-63
2022/10/09 06:51:31;;;;;;;14.57;7.17;;;;;;;;;;5058816;28;20213;-61
2022/10/09 06:53:59;;;;;;;15.47;7.97;;;;;;;;;;5056803;28;20280;-63
2022/10/09 06:56:28;;;;;;;16.23;9.53;;;;;;;;;;5049778;28;20614;-62
2022/10/09 06:58:56;;;;;;;9.30;6.93;;;;;;;;;;5048726;28;20274;-61
2022/10/09 07:01:29;;;;;;;10.33;6.80;;;;;;;;;;5058636;28;20292;-62
2022/10/09 07:04:08;;;;;;;9.93;6.57;;;;;;;;;;5050703;28;20230;-63
2022/10/09 07:06:40;;;;;;;9.40;6.40;;;;;;;;;;5060007;28;20326;-61
2022/10/09 07:09:10;;;;;;;11.87;6.57;;;;;;;;;;5058076;28;20273;-61
2022/10/09 07:11:42;;;;;;;12.60;7.57;;;;;;;;;;5056652;28;20202;-62
2022/10/09 07:14:10;;;;;;;12.27;6.47;;;;;;;;;;5050466;28;20220;-63
2022/10/09 07:16:38;;;;;;;12.73;6.83;;;;;;;;;;5048099;28;20275;-63
2022/10/09 07:19:07;;;;;;;11.60;6.30;;;;;;;;;;5050858;28;20194;-62
2022/10/09 07:21:34;;;;;;;11.10;6.73;;;;;;;;;;5060353;28;20206;-64
2022/10/09 07:24:02;;;;;;;13.93;6.37;;;;;;;;;;5056723;28;20254;-64
2022/10/09 07:26:30;;;;;;;11.10;6.63;;;;;;;;;;5044963;28;20229;-62
2022/10/09 07:28:58;;;;;;;11.00;7.73;;;;;;;;;;5052660;28;20293;-62
2022/10/09 07:31:25;;;;;;;17.63;7.70;;;;;;;;;;5052008;28;20668;-63
2022/10/09 07:33:55;;;;;;;8.83;5.90;;;;;;;;;;5069121;28;20231;-62
2022/10/09 07:36:23;;;;;;;10.57;6.07;;;;;;;;;;5053933;28;20316;-63
2022/10/09 07:38:51;;;;;;;11.53;5.90;;;;;;;;;;5058256;28;20205;-62
2022/10/09 07:41:18;;;;;;;8.60;5.47;;;;;;;;;;5067096;28;20198;-62
2022/10/09 07:43:46;;;;;;;8.53;5.87;;;;;;;;;;5058139;28;20224;-63
2022/10/09 07:46:14;;;;;;;8.37;5.70;;;;;;;;;;5046181;28;20586;-63
2022/10/09 07:48:42;;;;;;;10.50;5.20;;;;;;;;;;5052456;28;20216;-62
2022/10/09 07:51:11;;;;;;;8.43;6.17;;;;;;;;;;5048032;28;20302;-62
2022/10/09 07:53:40;;;;;;;7.10;5.60;;;;;;;;;;5043558;28;20229;-61
2022/10/09 07:56:12;;;;;;;8.87;5.63;;;;;;;;;;5043856;28;20340;-60
2022/10/09 07:58:40;;;;;;;7.50;5.50;;;;;;;;;;5038674;28;20687;-62
2022/10/09 08:01:08;;;;;;;8.47;5.73;;;;;;;;;;5046284;28;20316;-61
2022/10/09 08:03:37;;;;;;;14.30;7.00;;;;;;;;;;5033383;28;20657;-62
2022/10/09 08:06:05;;;;;;;15.53;7.97;;;;;;;;;;5038234;28;20229;-61
2022/10/09 08:08:32;;;;;;;14.47;7.77;;;;;;;;;;5039728;28;20323;-61
2022/10/09 08:11:00;;;;;;;13.80;7.80;;;;;;;;;;5042935;28;20217;-61
2022/10/09 08:13:27;;;;;;;11.30;6.60;;;;;;;;;;5036916;28;20225;-61
2022/10/09 08:15:58;;;;;;;16.37;6.80;;;;;;;;;;5037538;28;20313;-61
2022/10/09 08:18:25;;;;;;;6.57;4.47;;;;;;;;;;5035493;28;20757;-61
2022/10/09 08:21:00;;;;;;;6.73;4.37;;;;;;;;;;5039322;28;20283;-62
2022/10/09 08:23:28;;;;;;;9.80;4.63;;;;;;;;;;5026857;28;20296;-62
2022/10/09 08:25:57;;;;;;;6.17;4.43;;;;;;;;;;5040093;28;20206;-61
2022/10/09 08:28:25;;;;;;;6.90;4.47;;;;;;;;;;5046176;28;21920;-62
2022/10/09 08:30:53;;;;;;;11.10;6.73;;;;;;;;;;5046012;28;20235;-62
2022/10/09 08:33:23;;;;;;;15.23;9.23;;;;;;;;;;5053347;28;20233;-62
2022/10/09 08:35:53;;;;;;;10.13;5.67;;;;;;;;;;5032690;28;20193;-62
2022/10/09 08:38:20;;;;;;;7.10;4.63;;;;;;;;;;5031276;28;20198;-61
2022/10/09 08:41:13;;;;;;;6.87;5.53;;;;;;;;;;5040986;28;20229;-60
2022/10/09 08:43:43;;;;;;;5.07;3.70;;;;;;;;;;5047392;28;21089;-61
2022/10/09 08:46:17;;;;;;;5.20;3.70;;;;;;;;;;5050444;28;20217;-61
2022/10/09 08:48:48;;;;;;;3.63;3.10;;;;;;;;;;5041057;28;20225;-64
2022/10/09 08:51:20;;;;;;;4.23;3.47;;;;;;;;;;5046041;28;20210;-62
2022/10/09 08:53:51;;;;;;;5.37;3.60;;;;;;;;;;5048204;28;20221;-62
2022/10/09 08:56:19;;;;;;;5.50;3.20;;;;;;;;;;5048662;28;20295;-62
2022/10/09 08:58:46;;;;;;;4.50;3.03;;;;;;;;;;5050718;28;20222;-65
2022/10/09 09:01:13;;;;;;;6.43;3.10;;;;;;;;;;5046013;28;20943;-65
2022/10/09 09:03:47;;;;;;;5.23;2.90;;;;;;;;;;5060874;28;20708;-61
2022/10/09 09:06:23;;;;;;;4.30;2.90;;;;;;;;;;5069314;28;20762;-63
2022/10/09 09:09:00;;;;;;;5.20;3.07;;;;;;;;;;5041501;28;20328;-62
2022/10/09 09:11:30;;;;;;;3.40;2.80;;;;;;;;;;5043382;28;20312;-61
2022/10/09 09:14:10;;;;;;;4.80;2.60;;;;;;;;;;5042834;28;20225;-61
2022/10/09 09:16:56;;;;;;;3.90;2.30;;;;;;;;;;5047907;28;20225;-62
2022/10/09 09:20:02;;;;;;;5.13;3.00;;;;;;;;;;5051733;28;20312;-64
2022/10/09 09:22:31;;;;;;;5.50;3.10;;;;;;;;;;4977043;28;20211;-63
2022/10/09 09:24:59;;;;;;;2.67;2.23;;;;;;;;;;4975776;28;20219;-63
2022/10/09 09:27:31;;;;;;;2.77;2.20;;;;;;;;;;5023777;28;20229;-64
2022/10/09 09:30:02;;;;;;;4.57;2.30;;;;;;;;;;5053477;28;20256;-62
2022/10/09 09:32:31;;;;;;;4.40;2.87;;;;;;;;;;5050682;28;20347;-63
2022/10/09 09:35:03;;;;;;;3.73;2.50;;;;;;;;;;5048879;28;20193;-61
2022/10/09 09:37:30;;;;;;;3.20;2.27;;;;;;;;;;5051087;28;20222;-62
2022/10/09 09:39:58;;;;;;;2.43;2.23;;;;;;;;;;5048180;28;20213;-63
2022/10/09 09:42:46;;;;;;;3.83;2.30;;;;;;;;;;5047839;28;20291;-63
2022/10/09 09:45:19;;;;;;;3.27;2.30;;;;;;;;;;5056185;28;20586;-62
2022/10/09 09:47:49;;;;;;;6.17;2.17;;;;;;;;;;5055938;28;20244;-64
2022/10/09 09:50:27;;;;;;;4.93;2.37;;;;;;;;;;5046473;28;20221;-61
2022/10/09 09:53:32;;;;;;;4.43;2.20;;;;;;;;;;5046177;28;20260;-62
2022/10/09 09:55:59;;;;;;;3.53;1.90;;;;;;;;;;5047417;28;20194;-62
2022/10/09 09:58:32;;;;;;;2.77;1.83;;;;;;;;;;5044574;28;20216;-62
2022/10/09 10:01:05;;;;;;;2.70;2.10;;;;;;;;;;5060996;28;20197;-61
2022/10/09 10:03:33;;;;;;;2.90;2.03;;;;;;;;;;5044182;28;20210;-62
2022/10/09 10:06:01;;;;;;;2.77;2.03;;;;;;;;;;5048628;28;20202;-62
2022/10/09 10:08:32;;;;;;;2.80;2.20;;;;;;;;;;5050212;28;20306;-63
2022/10/09 10:11:02;;;;;;;2.60;2.13;;;;;;;;;;5049520;28;20244;-62
2022/10/09 10:13:34;;;;;;;3.60;2.30;;;;;;;;;;5051923;28;20710;-64
2022/10/09 10:16:02;;;;;;;6.17;3.40;;;;;;;;;;5063265;28;20267;-63
2022/10/09 10:18:31;;;;;;;2.53;1.93;;;;;;;;;;5043763;28;20229;-61
2022/10/09 10:21:12;;;;;;;4.50;1.90;;;;;;;;;;5047388;28;20201;-63
2022/10/09 10:23:48;;;;;;;2.77;1.87;;;;;;;;;;5057873;28;20209;-62
2022/10/09 10:26:16;;;;;;;2.97;2.00;;;;;;;;;;5056182;28;20236;-63
2022/10/09 10:28:47;;;;;;;4.20;2.00;;;;;;;;;;5050944;28;20332;-62
2022/10/09 10:31:22;;;;;;;2.50;1.75;;;;;;;;;;5039376;28;20691;-63
2022/10/09 10:33:51;;;;;;;2.22;1.60;;;;;;;;;;5036529;28;20236;-61
2022/10/09 10:36:19;;;;;;;3.43;1.90;;;;;;;;;;5055753;28;20226;-63
2022/10/09 10:38:52;;;;;;;2.17;1.98;;;;;;;;;;5045963;28;20322;-62
2022/10/09 10:41:23;;;;;;;3.00;2.03;;;;;;;;;;5039343;28;20292;-61
2022/10/09 10:43:54;;;;;;;2.78;1.98;;;;;;;;;;5044060;28;20210;-63
2022/10/09 10:46:23;;;;;;;2.38;1.50;;;;;;;;;;5036843;28;21674;-60
2022/10/09 10:48:51;;;;;;;3.80;1.92;;;;;;;;;;5047200;28;20225;-61
2022/10/09 10:51:31;;;;;;;4.45;2.05;;;;;;;;;;5039414;28;20746;-61
2022/10/09 10:54:12;;;;;;;4.27;1.83;;;;;;;;;;5025214;28;22341;-62
2022/10/09 10:56:42;;;;;;;3.67;1.97;;;;;;;;;;5043184;28;20228;-62
2022/10/09 10:59:19;;;;;;;1.85;1.70;;;;;;;;;;5051835;28;20222;-61
2022/10/09 11:01:53;;;;;;;2.30;1.70;;;;;;;;;;5030270;28;20197;-63
2022/10/09 11:04:21;;;;;;;4.38;2.08;;;;;;;;;;5042847;28;20202;-64
2022/10/09 11:07:07;;;;;;;2.15;1.70;;;;;;;;;;5050903;28;20226;-62
2022/10/09 11:09:41;;;;;;;4.82;2.00;;;;;;;;;;5053604;28;20335;-61
2022/10/09 11:12:08;;;;;;;2.85;1.80;;;;;;;;;;5029248;28;20211;-63
2022/10/09 11:15:07;;;;;;;2.85;1.67;;;;;;;;;;5039638;28;20383;-62
2022/10/09 11:17:34;;;;;;;3.03;1.70;;;;;;;;;;5029618;28;20252;-62
2022/10/09 11:20:18;;;;;;;1.85;1.60;;;;;;;;;;5027727;28;21279;-64
2022/10/09 11:23:05;;;;;;;3.83;1.88;;;;;;;;;;5030481;28;20193;-63
2022/10/09 11:25:53;;;;;;;2.63;1.70;;;;;;;;;;5024235;28;20367;-64
2022/10/09 11:28:32;;;;;;;2.22;1.52;;;;;;;;;;5042413;28;20282;-61
2022/10/09 11:31:01;;;;;;;2.53;1.73;;;;;;;;;;5047673;28;20247;-64
2022/10/09 11:33:32;;;;;;;2.20;1.50;;;;;;;;;;5048891;28;20325;-63
2022/10/09 11:36:06;;;;;;;2.78;1.55;;;;;;;;;;5043163;28;20296;-63
2022/10/09 11:38:39;;;;;;;2.08;1.60;;;;;;;;;;5039302;28;20210;-62
2022/10/09 11:41:06;;;;;;;2.20;1.98;;;;;;;;;;5038842;28;20205;-63
2022/10/09 11:43:40;;;;;;;2.53;1.58;;;;;;;;;;5046436;28;20611;-63
2022/10/09 11:46:31;;;;;;;1.60;1.50;;;;;;;;;;5047387;28;20304;-61
2022/10/09 11:49:05;;;;;;;1.58;1.48;;;;;;;;;;5037454;28;20215;-62
2022/10/09 11:51:33;;;;;;;3.22;2.00;;;;;;;;;;5044168;28;21081;-62
2022/10/09 11:54:03;;;;;;;2.65;1.55;;;;;;;;;;5042298;28;20225;-61
2022/10/09 11:56:34;;;;;;;2.92;1.85;;;;;;;;;;5037397;28;20734;-61
2022/10/09 11:59:04;;;;;;;5.03;2.30;;;;;;;;;;5032206;28;20671;-62
2022/10/09 12:01:36;;;;;;;3.60;1.65;;;;;;;;;;5028265;28;20202;-62
2022/10/09 12:04:06;;;;;;;1.63;1.52;;;;;;;;;;5042327;28;20271;-61
2022/10/09 12:06:54;;;;;;;2.42;1.80;;;;;;;;;;5038044;28;20279;-65
2022/10/09 12:09:23;;;;;;;3.45;2.00;;;;;;;;;;5034788;28;20232;-62
2022/10/09 12:11:58;;;;;;;2.10;1.90;;;;;;;;;;5031208;28;20229;-63
2022/10/09 12:14:27;;;;;;;3.63;1.80;;;;;;;;;;5034263;28;20231;-62
2022/10/09 12:16:55;;;;;;;3.88;2.03;;;;;;;;;;5044871;28;20295;-63
2022/10/09 12:19:38;;;;;;;5.13;2.33;;;;;;;;;;5041743;28;20201;-61
2022/10/09 12:22:28;;;;;;;5.35;2.33;;;;;;;;;;5043229;28;20208;-62
2022/10/09 12:24:58;;;;;;;4.47;2.20;;;;;;;;;;5040354;28;20217;-62
2022/10/09 12:27:36;;;;;;;2.75;2.20;;;;;;;;;;5056052;28;20282;-63
2022/10/09 12:30:27;;;;;;;3.30;2.20;;;;;;;;;;5041752;28;20699;-63
2022/10/09 12:32:58;;;;;;;3.17;2.13;;;;;;;;;;5042925;28;20202;-62
2022/10/09 12:35:33;;;;;;;2.20;2.00;;;;;;;;;;5026118;28;20770;-64
2022/10/09 12:38:01;;;;;;;4.00;2.05;;;;;;;;;;5042205;28;20771;-63
2022/10/09 12:40:31;;;;;;;2.95;2.17;;;;;;;;;;5035325;28;20202;-63
2022/10/09 12:43:00;;;;;;;5.00;2.20;;;;;;;;;;5040260;28;20202;-63
2022/10/09 12:45:29;;;;;;;5.13;3.47;;;;;;;;;;5038540;28;20208;-63
2022/10/09 12:47:58;;;;;;;2.90;2.53;;;;;;;;;;5031150;28;20673;-63
2022/10/09 12:50:33;;;;;;;6.20;2.70;;;;;;;;;;5032547;28;20278;-61
2022/10/09 12:53:22;;;;;;;4.15;2.78;;;;;;;;;;5040918;28;20197;-64
2022/10/09 12:55:52;;;;;;;3.70;2.65;;;;;;;;;;5038114;28;20220;-61
2022/10/09 12:58:23;;;;;;;2.55;2.00;;;;;;;;;;5044571;28;20249;-63
2022/10/09 13:00:56;;;;;;;6.45;3.13;;;;;;;;;;5050158;28;20255;-65
2022/10/09 13:03:40;;;;;;;3.97;2.75;;;;;;;;;;5040896;28;20719;-63
2022/10/09 13:06:13;;;;;;;6.38;3.05;;;;;;;;;;5038861;28;20271;-63
2022/10/09 13:08:45;;;;;;;5.00;2.78;;;;;;;;;;5019229;28;20327;-61
2022/10/09 13:11:20;;;;;;;4.05;2.72;;;;;;;;;;5018406;28;20212;-62
2022/10/09 13:14:10;;;;;;;6.55;3.33;;;;;;;;;;5042462;28;20224;-61
2022/10/09 13:16:46;;;;;;;3.63;2.90;;;;;;;;;;5050414;28;20593;-62
2022/10/09 13:19:29;;;;;;;3.63;3.05;;;;;;;;;;5050452;28;20201;-62
2022/10/09 13:22:00;;;;;;;5.25;2.80;;;;;;;;;;5042421;28;20209;-62
2022/10/09 13:24:28;;;;;;;5.22;3.13;;;;;;;;;;5040570;28;20217;-62
2022/10/09 13:26:56;;;;;;;4.05;2.60;;;;;;;;;;5036428;28;20226;-61
2022/10/09 13:29:24;;;;;;;3.13;2.00;;;;;;;;;;5033295;28;20202;-60
2022/10/09 13:31:51;;;;;;;4.07;2.13;;;;;;;;;;5034643;28;20750;-63
2022/10/09 13:34:22;;;;;;;4.22;2.50;;;;;;;;;;5032960;28;20225;-62
2022/10/09 13:36:50;;;;;;;2.40;2.20;;;;;;;;;;5033161;28;20271;-62
2022/10/09 13:39:17;;;;;;;4.90;2.55;;;;;;;;;;5039403;28;20305;-62
2022/10/09 13:41:45;;;;;;;2.90;2.40;;;;;;;;;;5031443;28;20214;-62
2022/10/09 13:44:15;;;;;;;8.52;3.00;;;;;;;;;;5037003;28;20587;-63
2022/10/09 13:46:42;;;;;;;5.15;3.45;;;;;;;;;;5039698;28;20229;-63
2022/10/09 13:49:09;;;;;;;4.20;3.20;;;;;;;;;;5032274;28;20216;-61
2022/10/09 13:51:37;;;;;;;3.35;2.90;;;;;;;;;;5041568;28;20323;-61
2022/10/09 13:54:05;;;;;;;4.43;3.70;;;;;;;;;;5056152;28;20227;-62
2022/10/09 13:56:32;;;;;;;3.78;2.85;;;;;;;;;;5063001;28;20229;-62
2022/10/09 13:58:59;;;;;;;4.38;2.80;;;;;;;;;;5041231;28;20250;-61
2022/10/09 14:01:28;;;;;;;8.32;2.92;;;;;;;;;;5044339;28;20211;-62
2022/10/09 14:03:55;;;;;;;4.13;2.45;;;;;;;;;;5044192;28;22128;-62
2022/10/09 14:06:24;;;;;;;5.35;2.40;;;;;;;;;;5030620;28;20236;-61
2022/10/09 14:08:53;;;;;;;3.03;2.47;;;;;;;;;;5047181;28;20672;-61
2022/10/09 14:11:20;;;;;;;10.98;2.65;;;;;;;;;;5050452;28;20245;-61
2022/10/09 14:13:48;;;;;;;2.78;2.35;;;;;;;;;;5052668;28;20239;-61
2022/10/09 14:16:16;;;;;;;3.67;2.70;;;;;;;;;;5053666;28;20223;-61
2022/10/09 14:18:43;;;;;;;11.55;7.97;;;;;;;;;;5057303;28;20229;-62
2022/10/09 14:21:12;;;;;;;4.38;3.00;;;;;;;;;;5068250;28;20198;-62
2022/10/09 14:23:41;;;;;;;2.78;2.20;;;;;;;;;;5049655;28;20206;-62
2022/10/09 14:26:09;;;;;;;5.15;2.78;;;;;;;;;;5052590;28;20233;-62
2022/10/09 14:28:36;;;;;;;7.68;2.92;;;;;;;;;;5049234;28;20205;-62
2022/10/09 14:31:05;;;;;;;4.15;3.05;;;;;;;;;;5040871;28;20220;-61
2022/10/09 14:33:32;;;;;;;5.97;3.05;;;;;;;;;;5049561;28;20701;-63
2022/10/09 14:36:11;;;;;;;3.25;2.70;;;;;;;;;;5046313;28;20298;-63
2022/10/09 14:38:39;;;;;;;5.57;3.20;;;;;;;;;;5056682;28;20205;-63
2022/10/09 14:41:07;;;;;;;4.68;3.00;;;;;;;;;;5058534;28;20301;-63
2022/10/09 14:43:35;;;;;;;4.28;3.22;;;;;;;;;;5056021;28;20805;-61
2022/10/09 14:46:15;;;;;;;4.32;3.15;;;;;;;;;;5058785;28;20281;-62
2022/10/09 14:48:44;;;;;;;3.78;3.08;;;;;;;;;;5054286;28;20213;-61
2022/10/09 14:51:12;;;;;;;4.32;3.40;;;;;;;;;;5061806;28;20193;-63
2022/10/09 14:53:40;;;;;;;4.90;3.67;;;;;;;;;;5054076;28;20290;-62
2022/10/09 14:56:09;;;;;;;4.80;3.00;;;;;;;;;;5053033;28;20304;-62
2022/10/09 14:58:37;;;;;;;5.18;3.00;;;;;;;;;;5050904;28;20285;-62